sensor_id;sensor_type;location;lat;lon;timestamp;pressure;altitude;pressure_sealevel;temperature;humidity
47220;BME280;32961;51.936;4.788;2023-03-16T00:00:21;101698.84;;;4.96;71.01
47220;BME280;32961;51.936;4.788;2023-03-16T00:02:49;101695.31;;;4.96;71.79
47220;BME280;32961;51.936;4.788;2023-03-16T00:05:17;101684.53;;;4.96;71.23
47220;BME280;32961;51.936;4.788;2023-03-16T00:07:45;101693.41;;;4.98;71.67
47220;BME280;32961;51.936;4.788;2023-03-16T00:10:13;101685.31;;;4.98;71.30
47220;BME280;32961;51.936;4.788;2023-03-16T00:12:41;101688.97;;;4.97;71.51
47220;BME280;32961;51.936;4.788;2023-03-16T00:15:10;101681.69;;;4.99;71.32
47220;BME280;32961;51.936;4.788;2023-03-16T00:17:40;101678.88;;;5.01;71.96
47220;BME280;32961;51.936;4.788;2023-03-16T00:20:09;101679.63;;;5.03;72.07
47220;BME280;32961;51.936;4.788;2023-03-16T00:22:37;101669.75;;;5.03;72.18
47220;BME280;32961;51.936;4.788;2023-03-16T00:25:06;101669.66;;;5.05;72.22
47220;BME280;32961;51.936;4.788;2023-03-16T00:27:34;101655.59;;;5.00;72.31
47220;BME280;32961;51.936;4.788;2023-03-16T00:30:03;101657.94;;;5.06;72.52
47220;BME280;32961;51.936;4.788;2023-03-16T00:32:34;101665.06;;;5.07;72.64
47220;BME280;32961;51.936;4.788;2023-03-16T00:35:05;101662.38;;;5.07;72.50
47220;BME280;32961;51.936;4.788;2023-03-16T00:37:35;101667.75;;;5.07;72.38
47220;BME280;32961;51.936;4.788;2023-03-16T00:40:06;101662.38;;;5.07;73.36
47220;BME280;32961;51.936;4.788;2023-03-16T00:42:35;101657.84;;;5.07;73.21
47220;BME280;32961;51.936;4.788;2023-03-16T00:45:03;101660.47;;;5.09;73.09
47220;BME280;32961;51.936;4.788;2023-03-16T00:47:32;101654.19;;;5.08;73.32
47220;BME280;32961;51.936;4.788;2023-03-16T00:50:01;101653.34;;;5.08;73.18
47220;BME280;32961;51.936;4.788;2023-03-16T00:52:31;101638.22;;;5.05;73.82
47220;BME280;32961;51.936;4.788;2023-03-16T00:55:00;101643.41;;;5.08;73.44
47220;BME280;32961;51.936;4.788;2023-03-16T00:57:30;101636.22;;;5.09;73.79
47220;BME280;32961;51.936;4.788;2023-03-16T00:59:58;101625.34;;;5.10;74.01
47220;BME280;32961;51.936;4.788;2023-03-16T01:02:38;101620.06;;;5.09;74.38
47220;BME280;32961;51.936;4.788;2023-03-16T01:05:07;101621.00;;;5.08;74.77
47220;BME280;32961;51.936;4.788;2023-03-16T01:07:37;101606.59;;;5.09;75.04
47220;BME280;32961;51.936;4.788;2023-03-16T01:10:07;101611.88;;;5.10;74.82
47220;BME280;32961;51.936;4.788;2023-03-16T01:12:35;101610.03;;;5.11;75.58
47220;BME280;32961;51.936;4.788;2023-03-16T01:15:03;101604.66;;;5.11;75.35
47220;BME280;32961;51.936;4.788;2023-03-16T01:17:32;101604.53;;;5.12;75.44
47220;BME280;32961;51.936;4.788;2023-03-16T01:20:01;101605.44;;;5.13;75.67
47220;BME280;32961;51.936;4.788;2023-03-16T01:22:33;101609.88;;;5.14;76.12
47220;BME280;32961;51.936;4.788;2023-03-16T01:25:02;101606.38;;;5.12;76.01
47220;BME280;32961;51.936;4.788;2023-03-16T01:27:31;101601.00;;;5.12;76.49
47220;BME280;32961;51.936;4.788;2023-03-16T01:29:58;101596.56;;;5.11;76.16
47220;BME280;32961;51.936;4.788;2023-03-16T01:32:27;101601.84;;;5.12;77.01
47220;BME280;32961;51.936;4.788;2023-03-16T01:34:55;101599.94;;;5.14;76.53
47220;BME280;32961;51.936;4.788;2023-03-16T01:37:23;101590.13;;;5.13;77.21
47220;BME280;32961;51.936;4.788;2023-03-16T01:39:51;101589.16;;;5.14;77.31
47220;BME280;32961;51.936;4.788;2023-03-16T01:42:20;101581.19;;;5.13;76.99
47220;BME280;32961;51.936;4.788;2023-03-16T01:44:50;101575.69;;;5.14;77.70
47220;BME280;32961;51.936;4.788;2023-03-16T01:47:19;101577.59;;;5.12;78.26
47220;BME280;32961;51.936;4.788;2023-03-16T01:49:50;101566.84;;;5.12;78.09
47220;BME280;32961;51.936;4.788;2023-03-16T01:52:22;101560.59;;;5.12;79.50
47220;BME280;32961;51.936;4.788;2023-03-16T01:54:54;101556.94;;;5.13;79.23
47220;BME280;32961;51.936;4.788;2023-03-16T01:57:26;101551.47;;;5.14;78.96
47220;BME280;32961;51.936;4.788;2023-03-16T01:59:58;101551.56;;;5.13;79.12
47220;BME280;32961;51.936;4.788;2023-03-16T02:02:49;101550.59;;;5.14;79.22
47220;BME280;32961;51.936;4.788;2023-03-16T02:05:21;101551.56;;;5.13;80.02
47220;BME280;32961;51.936;4.788;2023-03-16T02:07:51;101550.59;;;5.14;79.62
47220;BME280;32961;51.936;4.788;2023-03-16T02:10:25;101542.41;;;5.16;80.12
47220;BME280;32961;51.936;4.788;2023-03-16T02:12:56;101546.84;;;5.17;80.34
47220;BME280;32961;51.936;4.788;2023-03-16T02:15:24;101543.09;;;5.19;80.30
47220;BME280;32961;51.936;4.788;2023-03-16T02:17:53;101543.19;;;5.18;80.79
47220;BME280;32961;51.936;4.788;2023-03-16T02:20:37;101545.78;;;5.19;81.78
47220;BME280;32961;51.936;4.788;2023-03-16T02:23:11;101535.03;;;5.19;81.44
47220;BME280;32961;51.936;4.788;2023-03-16T02:25:48;101536.88;;;5.19;82.13
47220;BME280;32961;51.936;4.788;2023-03-16T02:28:24;101535.03;;;5.19;82.29
47220;BME280;32961;51.936;4.788;2023-03-16T02:30:56;101530.47;;;5.20;82.62
47220;BME280;32961;51.936;4.788;2023-03-16T02:33:25;101528.69;;;5.20;82.97
47220;BME280;32961;51.936;4.788;2023-03-16T02:35:52;101519.81;;;5.18;82.63
47220;BME280;32961;51.936;4.788;2023-03-16T02:38:20;101526.94;;;5.19;83.50
47220;BME280;32961;51.936;4.788;2023-03-16T02:40:55;101523.38;;;5.19;83.49
47220;BME280;32961;51.936;4.788;2023-03-16T02:43:27;101515.31;;;5.19;83.69
47220;BME280;32961;51.936;4.788;2023-03-16T02:46:01;101517.13;;;5.18;84.52
47220;BME280;32961;51.936;4.788;2023-03-16T02:48:35;101517.00;;;5.20;83.91
47220;BME280;32961;51.936;4.788;2023-03-16T02:51:04;101511.63;;;5.20;83.89
47220;BME280;32961;51.936;4.788;2023-03-16T02:53:32;101517.00;;;5.20;84.56
47220;BME280;32961;51.936;4.788;2023-03-16T02:56:00;101517.91;;;5.20;84.20
47220;BME280;32961;51.936;4.788;2023-03-16T02:58:29;101517.91;;;5.20;84.79
47220;BME280;32961;51.936;4.788;2023-03-16T03:00:59;101515.22;;;5.20;84.57
47220;BME280;32961;51.936;4.788;2023-03-16T03:03:27;101509.81;;;5.20;84.69
47220;BME280;32961;51.936;4.788;2023-03-16T03:05:55;101524.03;;;5.22;84.83
47220;BME280;32961;51.936;4.788;2023-03-16T03:08:23;101512.50;;;5.20;85.37
47220;BME280;32961;51.936;4.788;2023-03-16T03:10:51;101520.38;;;5.23;85.03
47220;BME280;32961;51.936;4.788;2023-03-16T03:13:18;101512.31;;;5.23;86.05
47220;BME280;32961;51.936;4.788;2023-03-16T03:15:46;101505.00;;;5.25;85.52
47220;BME280;32961;51.936;4.788;2023-03-16T03:18:15;101507.69;;;5.25;85.70
47220;BME280;32961;51.936;4.788;2023-03-16T03:20:43;101506.66;;;5.28;86.05
47220;BME280;32961;51.936;4.788;2023-03-16T03:23:11;101510.22;;;5.28;86.20
47220;BME280;32961;51.936;4.788;2023-03-16T03:25:41;101502.16;;;5.28;86.31
47220;BME280;32961;51.936;4.788;2023-03-16T03:28:08;101496.81;;;5.27;85.96
47220;BME280;32961;51.936;4.788;2023-03-16T03:30:36;101500.47;;;5.26;86.09
47220;BME280;32961;51.936;4.788;2023-03-16T03:33:04;101500.47;;;5.26;87.11
47220;BME280;32961;51.936;4.788;2023-03-16T03:35:33;101482.00;;;5.20;87.13
47220;BME280;32961;51.936;4.788;2023-03-16T03:38:02;101490.75;;;5.23;87.68
47220;BME280;32961;51.936;4.788;2023-03-16T03:40:30;101488.00;;;5.25;87.29
47220;BME280;32961;51.936;4.788;2023-03-16T03:42:57;101489.00;;;5.22;88.21
47220;BME280;32961;51.936;4.788;2023-03-16T03:45:25;101488.25;;;5.20;87.92
47220;BME280;32961;51.936;4.788;2023-03-16T03:47:53;101488.16;;;5.22;87.93
47220;BME280;32961;51.936;4.788;2023-03-16T03:50:21;101482.88;;;5.20;88.74
47220;BME280;32961;51.936;4.788;2023-03-16T03:52:50;101478.25;;;5.22;88.69
47220;BME280;32961;51.936;4.788;2023-03-16T03:55:18;101484.50;;;5.23;88.30
47220;BME280;32961;51.936;4.788;2023-03-16T03:57:46;101478.34;;;5.21;88.34
47220;BME280;32961;51.936;4.788;2023-03-16T04:00:14;101469.19;;;5.23;88.96
47220;BME280;32961;51.936;4.788;2023-03-16T04:02:46;101476.59;;;5.20;89.00
47220;BME280;32961;51.936;4.788;2023-03-16T04:05:14;101466.72;;;5.20;89.34
47220;BME280;32961;51.936;4.788;2023-03-16T04:07:42;101459.31;;;5.24;88.85
47220;BME280;32961;51.936;4.788;2023-03-16T04:10:11;101459.19;;;5.25;88.75
47220;BME280;32961;51.936;4.788;2023-03-16T04:12:39;101456.69;;;5.22;89.47
47220;BME280;32961;51.936;4.788;2023-03-16T04:15:08;101457.47;;;5.24;89.00
47220;BME280;32961;51.936;4.788;2023-03-16T04:17:37;101462.75;;;5.26;89.49
47220;BME280;32961;51.936;4.788;2023-03-16T04:20:06;101462.69;;;5.27;89.69
47220;BME280;32961;51.936;4.788;2023-03-16T04:22:39;101455.66;;;5.25;89.40
47220;BME280;32961;51.936;4.788;2023-03-16T04:25:08;101450.16;;;5.26;89.87
47220;BME280;32961;51.936;4.788;2023-03-16T04:27:38;101450.16;;;5.26;89.27
47220;BME280;32961;51.936;4.788;2023-03-16T04:30:09;101446.59;;;5.26;90.08
47220;BME280;32961;51.936;4.788;2023-03-16T04:32:38;101441.13;;;5.27;89.61
47220;BME280;32961;51.936;4.788;2023-03-16T04:35:06;101436.69;;;5.26;90.58
47220;BME280;32961;51.936;4.788;2023-03-16T04:37:34;101441.13;;;5.27;89.96
47220;BME280;32961;51.936;4.788;2023-03-16T04:40:02;101435.63;;;5.29;90.46
47220;BME280;32961;51.936;4.788;2023-03-16T04:42:38;101438.44;;;5.27;89.89
47220;BME280;32961;51.936;4.788;2023-03-16T04:45:07;101435.72;;;5.27;91.04
47220;BME280;32961;51.936;4.788;2023-03-16T04:47:35;101428.50;;;5.28;90.69
47220;BME280;32961;51.936;4.788;2023-03-16T04:50:03;101433.03;;;5.27;91.26
47220;BME280;32961;51.936;4.788;2023-03-16T04:52:31;101434.00;;;5.26;90.60
47220;BME280;32961;51.936;4.788;2023-03-16T04:54:59;101428.59;;;5.26;91.46
47220;BME280;32961;51.936;4.788;2023-03-16T04:57:27;101430.63;;;5.23;91.36
47220;BME280;32961;51.936;4.788;2023-03-16T04:59:57;101425.34;;;5.21;91.47
47220;BME280;32961;51.936;4.788;2023-03-16T05:02:25;101422.66;;;5.21;91.85
47220;BME280;32961;51.936;4.788;2023-03-16T05:04:53;101424.56;;;5.19;91.84
47220;BME280;32961;51.936;4.788;2023-03-16T05:07:21;101429.09;;;5.19;92.46
47220;BME280;32961;51.936;4.788;2023-03-16T05:09:50;101423.72;;;5.19;91.98
47220;BME280;32961;51.936;4.788;2023-03-16T05:12:17;101426.47;;;5.17;92.51
47220;BME280;32961;51.936;4.788;2023-03-16T05:14:47;101429.09;;;5.19;92.39
47220;BME280;32961;51.936;4.788;2023-03-16T05:17:16;101423.03;;;5.15;93.10
47220;BME280;32961;51.936;4.788;2023-03-16T05:19:47;101422.25;;;5.13;93.48
47220;BME280;32961;51.936;4.788;2023-03-16T05:22:15;101423.19;;;5.12;93.11
47220;BME280;32961;51.936;4.788;2023-03-16T05:24:43;101423.31;;;5.10;93.81
47220;BME280;32961;51.936;4.788;2023-03-16T05:27:11;101427.81;;;5.10;93.57
47220;BME280;32961;51.936;4.788;2023-03-16T05:29:39;101423.47;;;5.07;94.10
47220;BME280;32961;51.936;4.788;2023-03-16T05:32:11;101410.91;;;5.08;94.35
47220;BME280;32961;51.936;4.788;2023-03-16T05:34:44;101411.94;;;5.05;95.07
47220;BME280;32961;51.936;4.788;2023-03-16T05:37:11;101412.81;;;5.06;95.00
47220;BME280;32961;51.936;4.788;2023-03-16T05:39:39;101409.34;;;5.04;94.97
47220;BME280;32961;51.936;4.788;2023-03-16T05:42:07;101402.22;;;5.03;95.31
47220;BME280;32961;51.936;4.788;2023-03-16T05:44:35;101393.38;;;5.01;96.05
47220;BME280;32961;51.936;4.788;2023-03-16T05:47:03;101377.59;;;4.94;96.00
47220;BME280;32961;51.936;4.788;2023-03-16T05:49:31;101394.44;;;4.98;96.66
47220;BME280;32961;51.936;4.788;2023-03-16T05:52:00;101385.56;;;4.96;96.76
47220;BME280;32961;51.936;4.788;2023-03-16T05:54:29;101388.28;;;4.96;96.91
47220;BME280;32961;51.936;4.788;2023-03-16T05:56:57;101390.28;;;4.92;97.41
47220;BME280;32961;51.936;4.788;2023-03-16T05:59:25;101389.22;;;4.95;96.81
47220;BME280;32961;51.936;4.788;2023-03-16T06:01:53;101387.59;;;4.92;97.28
47220;BME280;32961;51.936;4.788;2023-03-16T06:04:20;101390.97;;;4.96;97.20
47220;BME280;32961;51.936;4.788;2023-03-16T06:06:48;101399.03;;;4.96;97.86
47220;BME280;32961;51.936;4.788;2023-03-16T06:09:17;101376.41;;;4.84;97.60
47220;BME280;32961;51.936;4.788;2023-03-16T06:11:45;101385.75;;;4.93;97.26
47220;BME280;32961;51.936;4.788;2023-03-16T06:14:13;101383.84;;;4.95;97.82
47220;BME280;32961;51.936;4.788;2023-03-16T06:16:41;101391.91;;;4.95;97.61
47220;BME280;32961;51.936;4.788;2023-03-16T06:19:08;101388.84;;;5.01;97.32
47220;BME280;32961;51.936;4.788;2023-03-16T06:21:36;101382.78;;;4.97;97.59
47220;BME280;32961;51.936;4.788;2023-03-16T06:24:04;101375.66;;;4.96;97.78
47220;BME280;32961;51.936;4.788;2023-03-16T06:26:35;101387.22;;;4.98;97.78
47220;BME280;32961;51.936;4.788;2023-03-16T06:29:04;101365.38;;;4.89;98.02
47220;BME280;32961;51.936;4.788;2023-03-16T06:31:31;101379.91;;;5.01;97.74
47220;BME280;32961;51.936;4.788;2023-03-16T06:33:59;101377.00;;;5.04;97.24
47220;BME280;32961;51.936;4.788;2023-03-16T06:36:28;101374.53;;;5.01;98.15
47220;BME280;32961;51.936;4.788;2023-03-16T06:38:55;101372.78;;;5.00;98.17
47220;BME280;32961;51.936;4.788;2023-03-16T06:41:23;101372.91;;;4.98;98.43
47220;BME280;32961;51.936;4.788;2023-03-16T06:43:52;101362.97;;;4.98;98.64
47220;BME280;32961;51.936;4.788;2023-03-16T06:46:20;101367.41;;;5.00;98.80
47220;BME280;32961;51.936;4.788;2023-03-16T06:48:50;101364.72;;;5.00;98.55
47220;BME280;32961;51.936;4.788;2023-03-16T06:51:17;101360.94;;;5.02;98.39
47220;BME280;32961;51.936;4.788;2023-03-16T06:53:45;101354.50;;;5.05;99.18
47220;BME280;32961;51.936;4.788;2023-03-16T06:56:16;101357.19;;;5.05;98.52
47220;BME280;32961;51.936;4.788;2023-03-16T06:58:43;101353.44;;;5.07;99.34
47220;BME280;32961;51.936;4.788;2023-03-16T07:01:13;101354.31;;;5.08;98.98
47220;BME280;32961;51.936;4.788;2023-03-16T07:03:41;101351.63;;;5.08;99.21
47220;BME280;32961;51.936;4.788;2023-03-16T07:06:08;101352.31;;;5.11;99.56
47220;BME280;32961;51.936;4.788;2023-03-16T07:08:37;101352.19;;;5.13;98.67
47220;BME280;32961;51.936;4.788;2023-03-16T07:11:05;101352.31;;;5.11;99.15
47220;BME280;32961;51.936;4.788;2023-03-16T07:13:33;101347.59;;;5.15;99.21
47220;BME280;32961;51.936;4.788;2023-03-16T07:16:01;101328.34;;;5.07;98.88
47220;BME280;32961;51.936;4.788;2023-03-16T07:18:31;101342.22;;;5.15;99.04
47220;BME280;32961;51.936;4.788;2023-03-16T07:20:59;101343.25;;;5.12;99.76
47220;BME280;32961;51.936;4.788;2023-03-16T07:23:27;101340.25;;;5.17;98.53
47220;BME280;32961;51.936;4.788;2023-03-16T07:25:55;101342.00;;;5.18;99.23
47220;BME280;32961;51.936;4.788;2023-03-16T07:28:23;101341.03;;;5.19;98.83
47220;BME280;32961;51.936;4.788;2023-03-16T07:30:50;101340.09;;;5.20;98.47
47220;BME280;32961;51.936;4.788;2023-03-16T07:33:29;101336.22;;;5.24;98.30
47220;BME280;32961;51.936;4.788;2023-03-16T07:35:59;101337.84;;;5.27;98.27
47220;BME280;32961;51.936;4.788;2023-03-16T07:38:30;101340.34;;;5.30;98.69
47220;BME280;32961;51.936;4.788;2023-03-16T07:40:59;101339.28;;;5.33;98.15
47220;BME280;32961;51.936;4.788;2023-03-16T07:43:27;101346.03;;;5.40;97.73
47220;BME280;32961;51.936;4.788;2023-03-16T07:45:55;101351.19;;;5.43;97.99
47220;BME280;32961;51.936;4.788;2023-03-16T07:48:23;101344.75;;;5.45;97.18
47220;BME280;32961;51.936;4.788;2023-03-16T07:50:51;101350.72;;;5.51;97.50
47220;BME280;32961;51.936;4.788;2023-03-16T07:53:21;101341.56;;;5.53;97.31
47220;BME280;32961;51.936;4.788;2023-03-16T07:55:49;101337.69;;;5.57;96.66
47220;BME280;32961;51.936;4.788;2023-03-16T07:58:16;101335.69;;;5.61;95.41
47220;BME280;32961;51.936;4.788;2023-03-16T08:00:44;101347.91;;;5.67;96.13
47220;BME280;32961;51.936;4.788;2023-03-16T08:03:12;101342.41;;;5.68;95.85
47220;BME280;32961;51.936;4.788;2023-03-16T08:05:40;101344.13;;;5.69;94.72
47220;BME280;32961;51.936;4.788;2023-03-16T08:08:08;101349.31;;;5.72;94.76
47220;BME280;32961;51.936;4.788;2023-03-16T08:10:37;101351.81;;;5.75;94.09
47220;BME280;32961;51.936;4.788;2023-03-16T08:13:05;101346.97;;;5.81;93.61
47220;BME280;32961;51.936;4.788;2023-03-16T08:15:32;101355.75;;;5.84;92.88
47220;BME280;32961;51.936;4.788;2023-03-16T08:18:00;101357.25;;;5.88;93.25
47220;BME280;32961;51.936;4.788;2023-03-16T08:20:28;101358.13;;;5.89;93.29
47220;BME280;32961;51.936;4.788;2023-03-16T08:22:57;101354.91;;;5.97;93.57
47220;BME280;32961;51.936;4.788;2023-03-16T08:25:25;101341.28;;;6.00;92.57
47220;BME280;32961;51.936;4.788;2023-03-16T08:27:54;101347.41;;;6.02;92.74
47220;BME280;32961;51.936;4.788;2023-03-16T08:30:23;101349.63;;;6.09;91.88
47220;BME280;32961;51.936;4.788;2023-03-16T08:32:52;101344.97;;;6.12;92.01
47220;BME280;32961;51.936;4.788;2023-03-16T08:35:20;101341.41;;;6.11;91.27
47220;BME280;32961;51.936;4.788;2023-03-16T08:37:48;101344.66;;;6.16;90.72
47220;BME280;32961;51.936;4.788;2023-03-16T08:40:16;101340.22;;;6.15;90.93
47220;BME280;32961;51.936;4.788;2023-03-16T08:42:44;101331.06;;;6.18;90.79
47220;BME280;32961;51.936;4.788;2023-03-16T08:45:18;101331.81;;;6.20;90.93
47220;BME280;32961;51.936;4.788;2023-03-16T08:47:45;101335.06;;;6.25;89.97
47220;BME280;32961;51.936;4.788;2023-03-16T08:50:13;101332.19;;;6.28;90.35
47220;BME280;32961;51.936;4.788;2023-03-16T08:52:41;101337.03;;;6.36;89.88
47220;BME280;32961;51.936;4.788;2023-03-16T08:55:10;101327.75;;;6.40;89.99
47220;BME280;32961;51.936;4.788;2023-03-16T08:57:38;101330.16;;;6.45;89.65
47220;BME280;32961;51.936;4.788;2023-03-16T09:00:07;101325.94;;;6.53;89.49
47220;BME280;32961;51.936;4.788;2023-03-16T09:02:40;101319.06;;;6.62;88.46
47220;BME280;32961;51.936;4.788;2023-03-16T09:05:10;101323.59;;;6.74;88.05
47220;BME280;32961;51.936;4.788;2023-03-16T09:07:38;101329.41;;;6.81;87.92
47220;BME280;32961;51.936;4.788;2023-03-16T09:10:07;101321.84;;;6.86;87.03
47220;BME280;32961;51.936;4.788;2023-03-16T09:12:37;101315.91;;;6.94;87.23
47220;BME280;32961;51.936;4.788;2023-03-16T09:15:07;101326.38;;;6.99;86.30
47220;BME280;32961;51.936;4.788;2023-03-16T09:17:35;101327.91;;;7.03;85.99
47220;BME280;32961;51.936;4.788;2023-03-16T09:20:06;101311.13;;;7.11;85.41
47220;BME280;32961;51.936;4.788;2023-03-16T09:22:48;101315.75;;;7.21;84.55
47220;BME280;32961;51.936;4.788;2023-03-16T09:25:15;101313.25;;;7.31;83.40
47220;BME280;32961;51.936;4.788;2023-03-16T09:27:44;101315.50;;;7.37;83.16
47220;BME280;32961;51.936;4.788;2023-03-16T09:30:12;101309.09;;;7.51;83.41
47220;BME280;32961;51.936;4.788;2023-03-16T09:32:42;101299.41;;;7.60;83.07
47220;BME280;32961;51.936;4.788;2023-03-16T09:35:11;101308.66;;;7.82;82.20
47220;BME280;32961;51.936;4.788;2023-03-16T09:37:39;101302.94;;;7.98;80.97
47220;BME280;32961;51.936;4.788;2023-03-16T09:40:23;101305.00;;;8.18;80.25
47220;BME280;32961;51.936;4.788;2023-03-16T09:43:00;101298.41;;;8.34;78.67
47220;BME280;32961;51.936;4.788;2023-03-16T09:45:39;101286.00;;;8.43;76.85
47220;BME280;32961;51.936;4.788;2023-03-16T09:48:09;101274.47;;;8.52;76.52
47220;BME280;32961;51.936;4.788;2023-03-16T09:50:40;101276.59;;;8.71;75.55
47220;BME280;32961;51.936;4.788;2023-03-16T09:53:17;101280.41;;;8.80;71.71
47220;BME280;32961;51.936;4.788;2023-03-16T09:55:51;101279.91;;;8.97;72.06
47220;BME280;32961;51.936;4.788;2023-03-16T09:58:21;101259.59;;;9.03;72.89
47220;BME280;32961;51.936;4.788;2023-03-16T10:00:58;101279.16;;;9.29;72.57
47220;BME280;32961;51.936;4.788;2023-03-16T10:03:39;101277.88;;;9.45;71.31
47220;BME280;32961;51.936;4.788;2023-03-16T10:06:18;101270.22;;;9.50;70.53
47220;BME280;32961;51.936;4.788;2023-03-16T10:08:50;101283.53;;;9.64;69.26
47220;BME280;32961;51.936;4.788;2023-03-16T10:11:27;101285.84;;;9.69;66.96
47220;BME280;32961;51.936;4.788;2023-03-16T10:14:01;101275.59;;;9.73;67.37
47220;BME280;32961;51.936;4.788;2023-03-16T10:16:36;101287.16;;;9.86;67.04
47220;BME280;32961;51.936;4.788;2023-03-16T10:19:10;101283.53;;;9.97;65.70
47220;BME280;32961;51.936;4.788;2023-03-16T10:21:41;101284.75;;;10.04;64.82
47220;BME280;32961;51.936;4.788;2023-03-16T10:24:16;101268.78;;;10.11;64.91
47220;BME280;32961;51.936;4.788;2023-03-16T10:26:52;101278.97;;;10.19;63.13
47220;BME280;32961;51.936;4.788;2023-03-16T10:29:22;101279.56;;;10.22;62.05
47220;BME280;32961;51.936;4.788;2023-03-16T10:31:49;101272.50;;;10.31;62.45
47220;BME280;32961;51.936;4.788;2023-03-16T10:34:19;101266.06;;;10.32;61.78
47220;BME280;32961;51.936;4.788;2023-03-16T10:36:51;101268.28;;;10.38;63.22
47220;BME280;32961;51.936;4.788;2023-03-16T10:39:21;101251.75;;;10.41;60.95
47220;BME280;32961;51.936;4.788;2023-03-16T10:41:55;101248.88;;;10.43;60.98
47220;BME280;32961;51.936;4.788;2023-03-16T10:44:25;101243.78;;;10.50;61.01
47220;BME280;32961;51.936;4.788;2023-03-16T10:46:59;101237.91;;;10.54;60.60
47220;BME280;32961;51.936;4.788;2023-03-16T10:49:34;101245.44;;;10.62;60.49
47220;BME280;32961;51.936;4.788;2023-03-16T10:52:10;101243.16;;;10.67;59.04
47220;BME280;32961;51.936;4.788;2023-03-16T10:54:40;101243.19;;;10.77;59.21
47220;BME280;32961;51.936;4.788;2023-03-16T10:57:23;101232.34;;;10.77;58.83
47220;BME280;32961;51.936;4.788;2023-03-16T10:59:53;101237.47;;;10.80;58.35
47220;BME280;32961;51.936;4.788;2023-03-16T11:02:23;101229.47;;;10.79;57.71
47220;BME280;32961;51.936;4.788;2023-03-16T11:04:57;101219.13;;;10.72;57.34
47220;BME280;32961;51.936;4.788;2023-03-16T11:07:27;101218.88;;;10.75;58.11
47220;BME280;32961;51.936;4.788;2023-03-16T11:09:55;101208.72;;;10.78;57.15
47220;BME280;32961;51.936;4.788;2023-03-16T11:12:26;101208.00;;;10.75;57.08
47220;BME280;32961;51.936;4.788;2023-03-16T11:15:01;101206.28;;;10.74;57.20
47220;BME280;32961;51.936;4.788;2023-03-16T11:17:36;101214.63;;;10.83;57.83
47220;BME280;32961;51.936;4.788;2023-03-16T11:20:10;101196.88;;;10.88;57.09
47220;BME280;32961;51.936;4.788;2023-03-16T11:22:45;101200.19;;;10.92;56.21
47220;BME280;32961;51.936;4.788;2023-03-16T11:25:18;101197.31;;;10.94;56.73
47220;BME280;32961;51.936;4.788;2023-03-16T11:27:48;101203.81;;;11.02;55.42
47220;BME280;32961;51.936;4.788;2023-03-16T11:30:21;101196.69;;;11.11;56.28
47220;BME280;32961;51.936;4.788;2023-03-16T11:32:52;101193.41;;;11.17;55.18
47220;BME280;32961;51.936;4.788;2023-03-16T11:35:23;101191.13;;;11.22;55.73
47220;BME280;32961;51.936;4.788;2023-03-16T11:38:07;101183.53;;;11.26;55.47
47220;BME280;32961;51.936;4.788;2023-03-16T11:40:45;101179.25;;;11.33;55.68
47220;BME280;32961;51.936;4.788;2023-03-16T11:43:42;101182.13;;;11.42;55.93
47220;BME280;32961;51.936;4.788;2023-03-16T11:46:16;101182.41;;;11.48;54.73
47220;BME280;32961;51.936;4.788;2023-03-16T11:48:54;101189.44;;;11.51;53.93
47220;BME280;32961;51.936;4.788;2023-03-16T11:51:34;101182.97;;;11.52;53.44
47220;BME280;32961;51.936;4.788;2023-03-16T11:54:21;101176.81;;;11.60;51.68
47220;BME280;32961;51.936;4.788;2023-03-16T11:56:58;101165.94;;;11.60;52.00
47220;BME280;32961;51.936;4.788;2023-03-16T11:59:44;101173.09;;;11.70;52.05
47220;BME280;32961;51.936;4.788;2023-03-16T12:02:34;101174.38;;;11.86;52.69
47220;BME280;32961;51.936;4.788;2023-03-16T12:05:22;101168.22;;;12.03;52.61
47220;BME280;32961;51.936;4.788;2023-03-16T12:08:03;101167.22;;;12.14;50.63
47220;BME280;32961;51.936;4.788;2023-03-16T12:10:42;101170.91;;;12.23;51.75
47220;BME280;32961;51.936;4.788;2023-03-16T12:13:21;101163.72;;;12.32;49.96
47220;BME280;32961;51.936;4.788;2023-03-16T12:15:58;101160.22;;;12.40;50.27
47220;BME280;32961;51.936;4.788;2023-03-16T12:18:34;101153.19;;;12.47;50.51
47220;BME280;32961;51.936;4.788;2023-03-16T12:21:10;101151.84;;;12.61;50.79
47220;BME280;32961;51.936;4.788;2023-03-16T12:23:44;101144.88;;;12.76;49.99
47220;BME280;32961;51.936;4.788;2023-03-16T12:26:18;101143.53;;;12.90;49.68
47220;BME280;32961;51.936;4.788;2023-03-16T12:28:48;101145.03;;;13.03;48.57
47220;BME280;32961;51.936;4.788;2023-03-16T12:31:21;101141.84;;;13.07;47.74
47220;BME280;32961;51.936;4.788;2023-03-16T12:34:02;101126.03;;;13.11;46.10
47220;BME280;32961;51.936;4.788;2023-03-16T12:36:41;101129.53;;;13.21;46.13
47220;BME280;32961;51.936;4.788;2023-03-16T12:39:18;101110.19;;;13.32;44.70
47220;BME280;32961;51.936;4.788;2023-03-16T12:42:01;101116.47;;;13.43;44.87
47220;BME280;32961;51.936;4.788;2023-03-16T12:44:35;101098.91;;;13.45;43.92
47220;BME280;32961;51.936;4.788;2023-03-16T12:47:12;101101.19;;;13.50;44.37
47220;BME280;32961;51.936;4.788;2023-03-16T12:49:44;101088.59;;;13.57;44.50
47220;BME280;32961;51.936;4.788;2023-03-16T12:52:13;101089.69;;;13.64;44.06
47220;BME280;32961;51.936;4.788;2023-03-16T12:54:51;101089.84;;;13.63;43.05
47220;BME280;32961;51.936;4.788;2023-03-16T12:57:24;101091.88;;;13.61;43.73
47220;BME280;32961;51.936;4.788;2023-03-16T12:59:55;101100.50;;;13.74;42.98
47220;BME280;32961;51.936;4.788;2023-03-16T13:02:28;101086.38;;;13.79;42.92
47220;BME280;32961;51.936;4.788;2023-03-16T13:05:00;101097.31;;;13.79;43.00
47220;BME280;32961;51.936;4.788;2023-03-16T13:07:30;101088.94;;;13.80;42.94
47220;BME280;32961;51.936;4.788;2023-03-16T13:10:02;101089.81;;;13.81;42.99
47220;BME280;32961;51.936;4.788;2023-03-16T13:12:36;101089.00;;;13.89;42.08
47220;BME280;32961;51.936;4.788;2023-03-16T13:15:27;101076.91;;;13.91;41.49